Time;durP1;ratioP1;P1;durP2;ratioP2;P2;SDS_P1;SDS_P2;PMS_P1;PMS_P2;Temp;Humidity;BMP_temperature;BMP_pressure;BME280_temperature;BME280_humidity;BME280_pressure;Samples;Min_cycle;Max_cycle;Signal;HPM_P1;HPM_P2
2023/11/27 00:01:09;;;;;;;5.63;4.90;;;;;;;;;;6155949;23;20066;-90
2023/11/27 00:03:38;;;;;;;4.38;3.97;;;;;;;;;;6155912;23;20017;-91
2023/11/27 00:06:09;;;;;;;4.03;3.50;;;;;;;;;;6155360;23;20037;-90
2023/11/27 00:08:36;;;;;;;3.88;3.45;;;;;;;;;;6155493;22;20088;-91
2023/11/27 00:11:03;;;;;;;3.30;3.00;;;;;;;;;;6155561;23;20079;-90
2023/11/27 00:13:30;;;;;;;4.53;3.50;;;;;;;;;;6155905;23;20025;-91
2023/11/27 00:15:58;;;;;;;3.30;3.00;;;;;;;;;;6155379;23;20041;-90
2023/11/27 00:18:25;;;;;;;4.47;3.70;;;;;;;;;;6155911;23;20081;-91
2023/11/27 00:20:52;;;;;;;4.45;3.28;;;;;;;;;;6155328;23;20017;-91
2023/11/27 00:23:19;;;;;;;4.43;4.03;;;;;;;;;;6155859;23;20025;-90
2023/11/27 00:25:47;;;;;;;3.42;3.13;;;;;;;;;;6155419;23;20017;-90
2023/11/27 00:28:14;;;;;;;3.72;2.88;;;;;;;;;;6155863;23;20105;-90
2023/11/27 00:30:41;;;;;;;2.85;2.63;;;;;;;;;;6155623;23;20013;-90
2023/11/27 00:33:09;;;;;;;2.80;2.50;;;;;;;;;;6155377;23;20017;-90
2023/11/27 00:35:36;;;;;;;2.50;2.30;;;;;;;;;;6154761;23;20458;-90
2023/11/27 00:38:04;;;;;;;1.77;1.50;;;;;;;;;;6155415;23;20025;-90
2023/11/27 00:40:31;;;;;;;2.63;2.20;;;;;;;;;;6155527;23;20078;-90
2023/11/27 00:42:58;;;;;;;1.50;1.40;;;;;;;;;;6155412;23;20109;-91
2023/11/27 00:45:25;;;;;;;2.40;2.30;;;;;;;;;;6155450;23;20017;-90
2023/11/27 00:47:55;;;;;;;1.92;1.83;;;;;;;;;;6154933;23;20391;-90
2023/11/27 00:50:22;;;;;;;6.45;2.40;;;;;;;;;;6155532;23;20392;-90
2023/11/27 00:52:50;;;;;;;2.33;2.22;;;;;;;;;;6155439;23;20025;-90
2023/11/27 00:55:17;;;;;;;1.85;1.75;;;;;;;;;;6155510;23;20052;-90
2023/11/27 00:57:44;;;;;;;1.40;1.25;;;;;;;;;;6155396;23;20017;-90
2023/11/27 01:00:12;;;;;;;0.57;0.57;;;;;;;;;;6155290;23;20074;-90
2023/11/27 01:02:40;;;;;;;1.42;0.90;;;;;;;;;;6155570;23;20029;-89
2023/11/27 01:05:08;;;;;;;1.90;1.80;;;;;;;;;;6155256;23;20096;-90
2023/11/27 01:07:35;;;;;;;3.80;1.63;;;;;;;;;;6157240;23;20016;-90
2023/11/27 01:10:02;;;;;;;2.13;1.92;;;;;;;;;;6157453;23;20032;-90
2023/11/27 01:12:30;;;;;;;1.20;1.20;;;;;;;;;;6184818;23;20050;-90
2023/11/27 01:14:57;;;;;;;1.35;1.27;;;;;;;;;;6158073;23;20400;-89
2023/11/27 01:17:24;;;;;;;1.60;1.50;;;;;;;;;;6157694;23;20085;-90
2023/11/27 01:19:52;;;;;;;1.80;1.48;;;;;;;;;;6156568;23;20349;-90
2023/11/27 01:22:19;;;;;;;1.00;1.00;;;;;;;;;;6157000;23;20025;-90
2023/11/27 01:24:47;;;;;;;1.48;0.90;;;;;;;;;;6156734;23;20103;-90
2023/11/27 01:27:14;;;;;;;0.60;0.60;;;;;;;;;;6156999;23;20079;-89
2023/11/27 01:29:42;;;;;;;1.08;0.80;;;;;;;;;;6182570;23;20025;-90
2023/11/27 01:32:09;;;;;;;1.00;1.00;;;;;;;;;;6182911;23;20029;-90
2023/11/27 01:34:36;;;;;;;0.88;0.88;;;;;;;;;;6182843;23;20047;-90
2023/11/27 01:37:03;;;;;;;1.27;1.05;;;;;;;;;;6157432;23;20025;-90
2023/11/27 01:39:31;;;;;;;0.82;0.82;;;;;;;;;;6182424;23;20284;-90
2023/11/27 01:41:58;;;;;;;0.70;0.70;;;;;;;;;;6156281;23;20029;-90
2023/11/27 01:44:25;;;;;;;2.25;0.70;;;;;;;;;;6156540;23;20502;-90
2023/11/27 01:46:53;;;;;;;1.23;0.80;;;;;;;;;;6182796;23;20017;-91
2023/11/27 01:49:20;;;;;;;0.70;0.70;;;;;;;;;;6156742;23;20450;-91
2023/11/27 01:51:47;;;;;;;0.82;0.82;;;;;;;;;;6156597;23;20017;-90
2023/11/27 01:54:18;;;;;;;0.70;0.70;;;;;;;;;;6156966;23;20064;-90
2023/11/27 01:56:47;;;;;;;1.55;0.70;;;;;;;;;;6182254;23;20074;-91
2023/11/27 01:59:16;;;;;;;0.80;0.80;;;;;;;;;;6156363;23;20454;-90
2023/11/27 02:01:44;;;;;;;4.97;0.80;;;;;;;;;;6156504;23;20021;-91
2023/11/27 02:04:12;;;;;;;0.82;0.82;;;;;;;;;;6156248;23;20031;-90
2023/11/27 02:06:39;;;;;;;1.00;1.00;;;;;;;;;;6182482;23;20029;-90
2023/11/27 02:09:07;;;;;;;1.70;1.00;;;;;;;;;;6156793;23;20024;-90
2023/11/27 02:11:44;;;;;;;0.80;0.80;;;;;;;;;;6156254;23;20029;-90
2023/11/27 02:14:15;;;;;;;1.10;1.10;;;;;;;;;;6156687;23;20465;-89
2023/11/27 02:16:43;;;;;;;1.20;1.10;;;;;;;;;;6156496;23;20032;-90
2023/11/27 02:19:11;;;;;;;1.02;1.02;;;;;;;;;;6156714;23;20341;-90
2023/11/27 02:21:38;;;;;;;1.38;0.95;;;;;;;;;;6182361;23;20018;-89
2023/11/27 02:24:05;;;;;;;1.45;0.73;;;;;;;;;;6155558;23;20523;-89
2023/11/27 02:26:33;;;;;;;0.90;0.90;;;;;;;;;;6156644;23;20025;-89
2023/11/27 02:29:00;;;;;;;1.10;1.10;;;;;;;;;;6182412;23;20354;-89
2023/11/27 02:31:27;;;;;;;0.77;0.77;;;;;;;;;;6156552;23;20334;-89
2023/11/27 02:33:55;;;;;;;0.93;0.80;;;;;;;;;;6156071;23;20096;-90
2023/11/27 02:36:24;;;;;;;1.00;0.82;;;;;;;;;;6181840;23;20450;-91
2023/11/27 02:38:52;;;;;;;1.00;1.00;;;;;;;;;;6156195;23;20458;-90
2023/11/27 02:41:19;;;;;;;0.80;0.80;;;;;;;;;;6156636;23;20051;-90
2023/11/27 02:43:47;;;;;;;1.30;0.82;;;;;;;;;;6182499;23;20522;-90
2023/11/27 02:46:15;;;;;;;1.02;0.80;;;;;;;;;;6155573;23;20021;-90
2023/11/27 02:48:42;;;;;;;0.90;0.90;;;;;;;;;;6181605;23;20052;-90
2023/11/27 02:51:09;;;;;;;0.90;0.90;;;;;;;;;;6182094;23;20074;-90
2023/11/27 02:53:37;;;;;;;0.93;0.90;;;;;;;;;;6156106;23;20021;-90
2023/11/27 02:56:05;;;;;;;0.65;0.65;;;;;;;;;;6156047;23;20025;-90
2023/11/27 02:58:33;;;;;;;0.90;0.90;;;;;;;;;;6156213;23;20473;-90
2023/11/27 03:01:00;;;;;;;1.17;1.17;;;;;;;;;;6156454;23;20338;-90
2023/11/27 03:03:27;;;;;;;1.00;1.00;;;;;;;;;;6155129;23;20055;-89
2023/11/27 03:05:55;;;;;;;1.25;0.90;;;;;;;;;;6155454;23;20032;-90
2023/11/27 03:08:22;;;;;;;0.80;0.80;;;;;;;;;;6182066;23;20101;-90
2023/11/27 03:10:49;;;;;;;0.90;0.90;;;;;;;;;;6156225;23;20082;-90
2023/11/27 03:13:16;;;;;;;2.97;1.10;;;;;;;;;;6182004;23;20025;-90
2023/11/27 03:15:44;;;;;;;1.10;1.10;;;;;;;;;;6181630;23;20410;-90
2023/11/27 03:18:11;;;;;;;1.40;1.30;;;;;;;;;;6155502;23;20028;-89
2023/11/27 03:20:38;;;;;;;1.00;1.00;;;;;;;;;;6155638;23;20488;-90
2023/11/27 03:23:05;;;;;;;2.05;1.33;;;;;;;;;;6181971;23;20021;-90
2023/11/27 03:25:33;;;;;;;1.70;0.90;;;;;;;;;;6181881;23;20033;-90
2023/11/27 03:28:00;;;;;;;0.98;0.98;;;;;;;;;;6155175;23;20021;-90
2023/11/27 03:30:27;;;;;;;1.20;1.20;;;;;;;;;;6155538;23;20130;-89
2023/11/27 03:32:55;;;;;;;1.20;1.10;;;;;;;;;;6156136;23;20029;-89
2023/11/27 03:35:22;;;;;;;1.10;1.10;;;;;;;;;;6155858;23;20043;-90
2023/11/27 03:37:50;;;;;;;1.30;1.20;;;;;;;;;;6156104;23;20071;-89
2023/11/27 03:40:17;;;;;;;1.15;1.15;;;;;;;;;;6181982;23;20528;-90
2023/11/27 03:42:44;;;;;;;1.10;1.10;;;;;;;;;;6155749;23;20029;-89
2023/11/27 03:45:12;;;;;;;4.70;0.95;;;;;;;;;;6181140;23;20104;-90
2023/11/27 03:47:39;;;;;;;1.30;1.00;;;;;;;;;;6155874;23;20017;-90
2023/11/27 03:50:07;;;;;;;1.05;0.85;;;;;;;;;;6156399;23;20025;-90
2023/11/27 03:52:34;;;;;;;1.20;1.10;;;;;;;;;;6155846;23;20025;-90
2023/11/27 03:55:01;;;;;;;1.10;1.00;;;;;;;;;;6181445;23;20051;-90
2023/11/27 03:57:29;;;;;;;1.38;1.17;;;;;;;;;;6155456;23;20623;-90
2023/11/27 03:59:56;;;;;;;2.13;1.35;;;;;;;;;;6155560;23;20078;-90
2023/11/27 04:02:23;;;;;;;2.80;1.10;;;;;;;;;;6156157;23;20017;-90
2023/11/27 04:04:51;;;;;;;1.45;1.20;;;;;;;;;;6155728;23;20031;-90
2023/11/27 04:07:18;;;;;;;1.67;1.38;;;;;;;;;;6155458;23;20074;-90
2023/11/27 04:09:45;;;;;;;1.10;1.00;;;;;;;;;;6155026;23;20023;-90
2023/11/27 04:12:13;;;;;;;1.23;1.13;;;;;;;;;;6155143;23;20449;-90
2023/11/27 04:14:40;;;;;;;2.35;1.30;;;;;;;;;;6155476;23;20081;-90
2023/11/27 04:17:07;;;;;;;1.80;1.52;;;;;;;;;;6155956;23;20021;-90
2023/11/27 04:19:35;;;;;;;1.13;1.10;;;;;;;;;;6156031;23;20104;-90
2023/11/27 04:22:02;;;;;;;1.52;1.42;;;;;;;;;;6156013;23;20062;-89
2023/11/27 04:24:29;;;;;;;1.45;1.10;;;;;;;;;;6155357;23;20086;-89
2023/11/27 04:26:56;;;;;;;1.75;1.33;;;;;;;;;;6155174;23;20098;-89
2023/11/27 04:29:24;;;;;;;1.58;1.48;;;;;;;;;;6155526;23;20075;-89
2023/11/27 04:31:51;;;;;;;1.92;1.50;;;;;;;;;;6155074;23;20035;-89
2023/11/27 04:34:18;;;;;;;1.90;1.80;;;;;;;;;;6155007;23;20096;-89
2023/11/27 04:36:46;;;;;;;5.90;1.90;;;;;;;;;;6155340;23;20017;-89
2023/11/27 04:39:14;;;;;;;1.95;1.52;;;;;;;;;;6155072;23;20017;-89
2023/11/27 04:41:42;;;;;;;2.13;2.03;;;;;;;;;;6155291;23;20025;-89
2023/11/27 04:44:10;;;;;;;1.70;1.60;;;;;;;;;;6155312;23;20021;-89
2023/11/27 04:46:37;;;;;;;3.65;2.13;;;;;;;;;;6155294;23;20331;-89
2023/11/27 04:49:04;;;;;;;2.88;2.67;;;;;;;;;;6155531;23;20021;-89
2023/11/27 04:51:32;;;;;;;3.15;2.80;;;;;;;;;;6155406;23;20048;-89
2023/11/27 04:54:02;;;;;;;2.75;1.88;;;;;;;;;;6154813;23;20021;-89
2023/11/27 04:56:29;;;;;;;3.15;2.53;;;;;;;;;;6155630;23;20021;-89
2023/11/27 04:58:57;;;;;;;3.45;2.60;;;;;;;;;;6155476;23;20354;-89
2023/11/27 05:01:28;;;;;;;3.08;2.40;;;;;;;;;;6155383;23;20450;-89
2023/11/27 05:03:55;;;;;;;3.28;2.92;;;;;;;;;;6154849;23;20013;-89
2023/11/27 05:06:23;;;;;;;5.03;3.22;;;;;;;;;;6154590;23;20021;-87
2023/11/27 05:08:50;;;;;;;4.55;3.20;;;;;;;;;;6155168;23;20016;-89
2023/11/27 05:11:18;;;;;;;4.03;3.42;;;;;;;;;;6155539;23;20354;-89
2023/11/27 05:13:46;;;;;;;4.32;2.85;;;;;;;;;;6155112;23;20062;-88
2023/11/27 05:16:14;;;;;;;4.68;2.70;;;;;;;;;;6154893;23;20033;-88
2023/11/27 05:18:45;;;;;;;2.97;2.78;;;;;;;;;;6154689;23;20014;-88
2023/11/27 05:21:12;;;;;;;4.63;2.72;;;;;;;;;;6155025;23;20453;-89
2023/11/27 05:23:41;;;;;;;3.13;2.80;;;;;;;;;;6154924;23;20487;-88
2023/11/27 05:26:09;;;;;;;3.42;3.22;;;;;;;;;;6153882;23;20025;-88
2023/11/27 05:28:37;;;;;;;3.53;3.08;;;;;;;;;;6155090;23;20021;-88
2023/11/27 05:31:08;;;;;;;7.22;3.00;;;;;;;;;;6154688;23;20028;-88
2023/11/27 05:33:35;;;;;;;5.00;3.10;;;;;;;;;;6154825;23;20039;-89
2023/11/27 05:36:03;;;;;;;4.03;3.00;;;;;;;;;;6154583;23;20075;-88
2023/11/27 05:38:30;;;;;;;4.00;2.60;;;;;;;;;;6154720;23;20039;-89
2023/11/27 05:41:01;;;;;;;2.95;2.67;;;;;;;;;;6154995;23;20028;-89
2023/11/27 05:43:28;;;;;;;4.15;2.90;;;;;;;;;;6180249;23;20017;-88
2023/11/27 05:45:56;;;;;;;3.70;2.85;;;;;;;;;;6154316;23;20552;-88
2023/11/27 05:48:24;;;;;;;2.55;2.35;;;;;;;;;;6154579;23;20024;-88
2023/11/27 05:50:51;;;;;;;3.38;3.08;;;;;;;;;;6154595;23;20021;-89
2023/11/27 05:53:18;;;;;;;3.88;2.97;;;;;;;;;;6150797;23;20094;-88
2023/11/27 05:55:46;;;;;;;4.85;2.90;;;;;;;;;;6151044;23;20025;-88
2023/11/27 05:58:13;;;;;;;5.85;3.65;;;;;;;;;;6150390;23;20018;-88
2023/11/27 06:00:40;;;;;;;5.00;3.50;;;;;;;;;;6150457;23;20520;-88
2023/11/27 06:03:08;;;;;;;5.28;3.55;;;;;;;;;;6150805;23;20021;-88
2023/11/27 06:05:35;;;;;;;5.78;4.38;;;;;;;;;;6150419;23;20018;-88
2023/11/27 06:08:03;;;;;;;8.23;7.22;;;;;;;;;;6151148;23;20385;-88
2023/11/27 06:10:30;;;;;;;6.28;5.30;;;;;;;;;;6151221;23;20025;-88
2023/11/27 06:12:57;;;;;;;7.45;5.05;;;;;;;;;;6150732;23;20026;-88
2023/11/27 06:15:25;;;;;;;6.03;5.43;;;;;;;;;;6150701;23;20392;-88
2023/11/27 06:17:52;;;;;;;8.43;5.55;;;;;;;;;;6150649;23;20079;-88
2023/11/27 06:20:19;;;;;;;7.68;5.38;;;;;;;;;;6150840;23;20017;-89
2023/11/27 06:22:46;;;;;;;9.45;5.65;;;;;;;;;;6150669;23;20022;-89
2023/11/27 06:25:14;;;;;;;12.48;6.38;;;;;;;;;;6149895;23;20071;-89
2023/11/27 06:27:41;;;;;;;11.65;5.05;;;;;;;;;;6150535;23;20022;-87
2023/11/27 06:30:10;;;;;;;7.65;5.35;;;;;;;;;;6151067;23;20021;-87
2023/11/27 06:32:39;;;;;;;10.00;5.30;;;;;;;;;;6151081;23;20013;-89
2023/11/27 06:35:10;;;;;;;5.85;4.05;;;;;;;;;;6150557;23;20022;-88
2023/11/27 06:37:39;;;;;;;9.68;4.88;;;;;;;;;;6151133;23;20048;-89
2023/11/27 06:40:07;;;;;;;8.82;4.85;;;;;;;;;;6151185;23;20029;-89
2023/11/27 06:42:35;;;;;;;8.63;4.40;;;;;;;;;;6150839;23;20017;-89
2023/11/27 06:45:04;;;;;;;7.35;4.75;;;;;;;;;;6150557;23;20063;-88
2023/11/27 06:47:32;;;;;;;6.18;4.90;;;;;;;;;;6150913;23;20078;-89
2023/11/27 06:50:00;;;;;;;9.07;5.18;;;;;;;;;;6150779;23;20446;-89
2023/11/27 06:52:27;;;;;;;6.15;5.18;;;;;;;;;;6155293;23;20025;-88
2023/11/27 06:54:55;;;;;;;11.80;4.68;;;;;;;;;;6130651;23;20059;-89
2023/11/27 06:57:22;;;;;;;11.60;5.22;;;;;;;;;;6155793;23;20024;-89
2023/11/27 06:59:50;;;;;;;7.88;4.97;;;;;;;;;;6156101;23;20021;-90
2023/11/27 07:02:18;;;;;;;9.02;5.35;;;;;;;;;;6155967;23;20066;-89
2023/11/27 07:04:45;;;;;;;10.95;5.25;;;;;;;;;;6155480;23;20021;-89
2023/11/27 07:07:12;;;;;;;11.32;5.05;;;;;;;;;;6155804;23;20443;-90
2023/11/27 07:09:40;;;;;;;16.77;6.30;;;;;;;;;;6155987;23;20460;-89
2023/11/27 07:12:07;;;;;;;9.35;6.18;;;;;;;;;;6156140;23;20044;-89
2023/11/27 07:14:35;;;;;;;9.57;5.82;;;;;;;;;;6155708;23;20025;-90
2023/11/27 07:17:03;;;;;;;9.13;5.75;;;;;;;;;;6155930;23;20017;-90
2023/11/27 07:19:30;;;;;;;8.77;5.47;;;;;;;;;;6155684;23;20028;-90
2023/11/27 07:21:58;;;;;;;8.18;5.72;;;;;;;;;;6155536;23;20025;-90
2023/11/27 07:24:25;;;;;;;7.60;6.18;;;;;;;;;;6156032;23;20021;-90
2023/11/27 07:26:52;;;;;;;9.85;4.88;;;;;;;;;;6156323;23;20017;-88
2023/11/27 07:29:19;;;;;;;10.95;5.03;;;;;;;;;;6156719;23;20017;-90
2023/11/27 07:31:47;;;;;;;8.10;4.97;;;;;;;;;;6156037;23;20074;-90
2023/11/27 07:34:14;;;;;;;5.80;4.18;;;;;;;;;;6155435;23;20017;-90
2023/11/27 07:36:42;;;;;;;7.47;4.20;;;;;;;;;;6155463;23;20028;-90
2023/11/27 07:39:10;;;;;;;7.00;3.80;;;;;;;;;;6155587;23;20013;-90
2023/11/27 07:41:38;;;;;;;6.28;3.42;;;;;;;;;;6155753;23;20028;-89
2023/11/27 07:44:06;;;;;;;4.45;3.33;;;;;;;;;;6156511;23;20323;-90
2023/11/27 07:46:33;;;;;;;7.70;3.22;;;;;;;;;;6155331;23;20040;-89
2023/11/27 07:49:01;;;;;;;7.80;3.25;;;;;;;;;;6157010;23;20025;-90
2023/11/27 07:51:28;;;;;;;8.40;3.42;;;;;;;;;;6157529;23;20021;-90
2023/11/27 07:53:55;;;;;;;5.82;3.03;;;;;;;;;;6155241;23;20028;-90
2023/11/27 07:56:27;;;;;;;10.38;3.83;;;;;;;;;;6155401;23;20017;-89
2023/11/27 07:58:58;;;;;;;6.43;2.90;;;;;;;;;;6158647;23;20021;-90
2023/11/27 08:01:25;;;;;;;7.05;3.13;;;;;;;;;;6154905;23;20028;-89
2023/11/27 08:03:53;;;;;;;11.30;3.47;;;;;;;;;;6155516;23;20096;-89
2023/11/27 08:06:20;;;;;;;7.18;3.25;;;;;;;;;;6155277;23;20028;-87
2023/11/27 08:08:48;;;;;;;7.32;2.75;;;;;;;;;;6155357;23;20021;-89
2023/11/27 08:11:15;;;;;;;6.28;3.00;;;;;;;;;;6155678;23;20446;-89
2023/11/27 08:13:43;;;;;;;5.18;3.05;;;;;;;;;;6155183;23;20021;-90
2023/11/27 08:16:10;;;;;;;6.50;2.70;;;;;;;;;;6154876;23;20041;-90
2023/11/27 08:18:38;;;;;;;8.73;3.28;;;;;;;;;;6155714;23;20017;-89
2023/11/27 08:21:10;;;;;;;4.03;3.05;;;;;;;;;;6156151;23;20021;-89
2023/11/27 08:23:37;;;;;;;4.60;2.88;;;;;;;;;;6155306;23;20509;-89
2023/11/27 08:26:05;;;;;;;6.50;2.95;;;;;;;;;;6154749;23;20028;-89
2023/11/27 08:28:33;;;;;;;5.10;2.72;;;;;;;;;;6155188;23;20078;-89
2023/11/27 08:31:01;;;;;;;5.97;3.40;;;;;;;;;;6155234;23;20023;-88
2023/11/27 08:33:28;;;;;;;4.93;2.60;;;;;;;;;;6155440;23;20088;-89
2023/11/27 08:35:57;;;;;;;3.75;2.40;;;;;;;;;;6154977;23;20092;-88
2023/11/27 08:38:25;;;;;;;2.78;2.45;;;;;;;;;;6155755;23;20025;-88
2023/11/27 08:40:52;;;;;;;3.92;2.42;;;;;;;;;;6155395;23;20032;-88
2023/11/27 08:43:21;;;;;;;5.88;2.80;;;;;;;;;;6154945;23;20021;-88
2023/11/27 08:45:49;;;;;;;9.10;3.20;;;;;;;;;;6154675;23;20017;-89
2023/11/27 08:48:16;;;;;;;7.20;3.53;;;;;;;;;;6154975;23;20024;-89
2023/11/27 08:50:43;;;;;;;9.95;4.10;;;;;;;;;;6155214;23;20051;-89
2023/11/27 08:53:11;;;;;;;4.38;2.95;;;;;;;;;;6155043;23;20070;-89
2023/11/27 08:55:38;;;;;;;8.48;3.10;;;;;;;;;;6154341;23;20089;-89
2023/11/27 08:58:06;;;;;;;5.93;2.97;;;;;;;;;;6155025;23;20017;-88
2023/11/27 09:00:34;;;;;;;2.75;2.55;;;;;;;;;;6181667;23;20300;-88
2023/11/27 09:03:04;;;;;;;6.38;2.83;;;;;;;;;;6155390;23;20017;-89
2023/11/27 09:05:31;;;;;;;5.80;2.75;;;;;;;;;;6154750;23;20027;-89
2023/11/27 09:08:05;;;;;;;5.85;2.80;;;;;;;;;;6155164;23;20345;-86
2023/11/27 09:10:35;;;;;;;5.53;2.78;;;;;;;;;;6155856;23;20349;-88
2023/11/27 09:13:05;;;;;;;4.03;2.92;;;;;;;;;;6155765;23;20017;-88
2023/11/27 09:15:33;;;;;;;3.05;2.67;;;;;;;;;;6154622;23;20037;-89
2023/11/27 09:18:01;;;;;;;4.72;2.67;;;;;;;;;;6155135;23;20017;-87
2023/11/27 09:20:28;;;;;;;6.70;2.90;;;;;;;;;;6180547;23;20021;-89
2023/11/27 09:22:56;;;;;;;2.83;2.42;;;;;;;;;;6154522;23;20028;-87
2023/11/27 09:25:24;;;;;;;5.18;2.90;;;;;;;;;;6154489;23;20024;-88
2023/11/27 09:27:51;;;;;;;4.53;2.80;;;;;;;;;;6182414;23;20025;-88
2023/11/27 09:30:20;;;;;;;8.68;3.88;;;;;;;;;;6156727;23;20029;-88
2023/11/27 09:32:48;;;;;;;6.95;3.33;;;;;;;;;;6181790;23;20075;-87
2023/11/27 09:35:16;;;;;;;3.40;2.78;;;;;;;;;;6155710;23;20458;-88
2023/11/27 09:37:43;;;;;;;4.68;2.78;;;;;;;;;;6182287;23;20032;-87
2023/11/27 09:40:12;;;;;;;3.60;3.05;;;;;;;;;;6156232;23;20413;-87
2023/11/27 09:42:40;;;;;;;4.90;2.58;;;;;;;;;;6156451;23;20079;-86
2023/11/27 09:45:18;;;;;;;3.97;2.63;;;;;;;;;;6181292;23;20017;-86
2023/11/27 09:47:48;;;;;;;5.78;2.65;;;;;;;;;;6181813;23;20128;-87
2023/11/27 09:50:17;;;;;;;4.97;2.67;;;;;;;;;;6156808;23;20049;-88
2023/11/27 09:52:46;;;;;;;6.13;2.70;;;;;;;;;;6155726;23;20078;-88
2023/11/27 09:55:14;;;;;;;5.32;2.92;;;;;;;;;;6156173;23;20063;-88
2023/11/27 09:57:43;;;;;;;6.25;2.42;;;;;;;;;;6155866;23;20017;-86
2023/11/27 10:00:13;;;;;;;3.05;2.67;;;;;;;;;;6155661;23;20025;-87
2023/11/27 10:02:40;;;;;;;7.55;3.08;;;;;;;;;;6181970;23;20100;-88
2023/11/27 10:05:08;;;;;;;3.60;2.33;;;;;;;;;;6181769;23;20040;-87
2023/11/27 10:07:36;;;;;;;4.50;2.47;;;;;;;;;;6155542;23;20481;-84
2023/11/27 10:10:09;;;;;;;6.80;2.63;;;;;;;;;;6182304;23;20051;-87
2023/11/27 10:12:38;;;;;;;6.80;2.55;;;;;;;;;;6155864;23;20021;-87
2023/11/27 10:15:11;;;;;;;4.93;2.70;;;;;;;;;;6155948;23;20021;-87
2023/11/27 10:17:43;;;;;;;4.55;2.70;;;;;;;;;;6156924;23;20052;-87
2023/11/27 10:20:14;;;;;;;6.30;2.92;;;;;;;;;;6156386;23;20021;-87
2023/11/27 10:22:42;;;;;;;4.28;2.45;;;;;;;;;;6156264;23;20025;-88
2023/11/27 10:25:13;;;;;;;5.32;2.00;;;;;;;;;;6180770;23;20017;-87
2023/11/27 10:27:42;;;;;;;4.47;2.60;;;;;;;;;;6156769;23;20029;-85
2023/11/27 10:30:24;;;;;;;7.68;2.60;;;;;;;;;;6156369;23;20311;-88
2023/11/27 10:32:52;;;;;;;3.80;2.20;;;;;;;;;;6183537;23;20070;-87
2023/11/27 10:35:25;;;;;;;5.78;2.60;;;;;;;;;;6161197;23;20028;-88
2023/11/27 10:37:57;;;;;;;4.90;2.53;;;;;;;;;;6157478;23;20082;-88
2023/11/27 10:40:28;;;;;;;5.00;1.83;;;;;;;;;;6156614;23;20025;-87
2023/11/27 10:43:00;;;;;;;3.33;2.40;;;;;;;;;;6155627;23;20167;-88
2023/11/27 10:45:29;;;;;;;3.97;1.97;;;;;;;;;;6155596;23;20031;-87
2023/11/27 10:47:57;;;;;;;3.83;2.25;;;;;;;;;;6156011;23;20021;-87
2023/11/27 10:50:25;;;;;;;4.82;1.90;;;;;;;;;;6181951;23;20482;-88
2023/11/27 10:52:55;;;;;;;2.67;1.95;;;;;;;;;;6155581;23;20045;-88
2023/11/27 10:55:24;;;;;;;3.75;2.13;;;;;;;;;;6182035;23;20017;-88
2023/11/27 10:57:52;;;;;;;7.13;2.78;;;;;;;;;;6155182;23;20025;-88
2023/11/27 11:00:29;;;;;;;4.82;2.00;;;;;;;;;;6155898;23;20376;-87
2023/11/27 11:03:06;;;;;;;5.47;2.15;;;;;;;;;;6182662;23;20029;-88
2023/11/27 11:05:53;;;;;;;3.45;2.08;;;;;;;;;;6155754;23;20515;-88
2023/11/27 11:08:26;;;;;;;5.95;2.10;;;;;;;;;;6156724;23;20035;-88
2023/11/27 11:10:55;;;;;;;2.58;1.85;;;;;;;;;;6182282;23;20388;-88
2023/11/27 11:13:24;;;;;;;3.13;1.55;;;;;;;;;;6155566;23;20484;-86
2023/11/27 11:16:00;;;;;;;3.58;1.90;;;;;;;;;;6181090;23;20021;-87
2023/11/27 11:18:28;;;;;;;4.18;2.10;;;;;;;;;;6156439;23;20032;-87
2023/11/27 11:21:03;;;;;;;6.30;2.00;;;;;;;;;;6156218;23;20101;-88
2023/11/27 11:23:40;;;;;;;4.82;2.25;;;;;;;;;;6181911;23;20025;-87
2023/11/27 11:26:32;;;;;;;6.28;2.42;;;;;;;;;;6181432;23;20274;-87
2023/11/27 11:29:12;;;;;;;3.97;1.80;;;;;;;;;;6159075;23;20104;-89
2023/11/27 11:31:49;;;;;;;4.00;1.77;;;;;;;;;;6155811;23;20458;-88
2023/11/27 11:34:26;;;;;;;2.83;1.85;;;;;;;;;;6156061;23;20092;-88
2023/11/27 11:36:58;;;;;;;4.97;1.80;;;;;;;;;;6156280;23;20343;-89
2023/11/27 11:39:25;;;;;;;4.68;2.08;;;;;;;;;;6182337;23;20021;-88
2023/11/27 11:42:03;;;;;;;4.30;2.28;;;;;;;;;;6155994;23;20093;-88
2023/11/27 11:44:35;;;;;;;3.97;2.35;;;;;;;;;;6181186;23;20051;-88
2023/11/27 11:47:08;;;;;;;2.50;1.87;;;;;;;;;;6155804;23;20018;-88
2023/11/27 11:49:35;;;;;;;3.60;2.00;;;;;;;;;;6181430;23;20017;-88
2023/11/27 11:52:08;;;;;;;5.93;2.10;;;;;;;;;;6155876;23;20021;-88
2023/11/27 11:54:38;;;;;;;5.07;2.28;;;;;;;;;;6155098;23;20120;-88
2023/11/27 11:57:12;;;;;;;3.67;2.20;;;;;;;;;;6156209;23;20025;-87
2023/11/27 11:59:40;;;;;;;3.92;2.08;;;;;;;;;;6155393;23;20462;-88
2023/11/27 12:02:12;;;;;;;2.70;2.03;;;;;;;;;;6156057;23;20341;-88
2023/11/27 12:04:40;;;;;;;4.90;1.40;;;;;;;;;;6155312;23;20070;-88
2023/11/27 12:07:08;;;;;;;3.95;1.83;;;;;;;;;;6155019;23;20361;-87
2023/11/27 12:09:36;;;;;;;2.40;1.45;;;;;;;;;;6181544;23;20024;-87
2023/11/27 12:12:03;;;;;;;4.07;1.67;;;;;;;;;;6182637;23;20029;-88
2023/11/27 12:14:32;;;;;;;5.00;1.70;;;;;;;;;;6156320;23;20025;-88
2023/11/27 12:17:00;;;;;;;3.75;1.77;;;;;;;;;;6182061;23;20021;-88
2023/11/27 12:19:28;;;;;;;2.42;1.50;;;;;;;;;;6155612;23;20025;-88
2023/11/27 12:21:56;;;;;;;1.52;1.08;;;;;;;;;;6181241;23;20025;-87
2023/11/27 12:24:23;;;;;;;1.23;1.13;;;;;;;;;;6181447;23;20017;-88
2023/11/27 12:26:53;;;;;;;4.05;1.60;;;;;;;;;;6180953;23;20039;-88
2023/11/27 12:29:21;;;;;;;1.45;1.35;;;;;;;;;;6181112;23;20013;-88
2023/11/27 12:31:50;;;;;;;3.30;1.48;;;;;;;;;;6180982;23;20025;-88
2023/11/27 12:34:17;;;;;;;4.05;1.27;;;;;;;;;;6154632;23;20013;-87
2023/11/27 12:36:46;;;;;;;2.42;1.40;;;;;;;;;;6155169;23;20021;-88
2023/11/27 12:39:22;;;;;;;1.02;0.88;;;;;;;;;;6155180;23;20017;-88
2023/11/27 12:41:50;;;;;;;1.10;1.00;;;;;;;;;;6155873;23;20029;-88
2023/11/27 12:44:20;;;;;;;1.45;0.90;;;;;;;;;;6155465;23;20338;-88
2023/11/27 12:46:48;;;;;;;1.55;1.30;;;;;;;;;;6154838;23;20078;-88
2023/11/27 12:49:24;;;;;;;1.20;1.10;;;;;;;;;;6181006;23;20017;-87
2023/11/27 12:51:53;;;;;;;1.10;0.98;;;;;;;;;;6149360;23;20021;-88
2023/11/27 12:54:22;;;;;;;1.70;0.80;;;;;;;;;;6155501;23;20017;-87
2023/11/27 12:56:52;;;;;;;1.58;0.80;;;;;;;;;;6155277;23;20461;-88
2023/11/27 12:59:23;;;;;;;1.05;1.00;;;;;;;;;;6180881;23;20446;-87
2023/11/27 13:01:57;;;;;;;1.48;0.60;;;;;;;;;;6155954;23;20105;-88
2023/11/27 13:04:38;;;;;;;0.80;0.80;;;;;;;;;;6182464;23;20338;-87
2023/11/27 13:07:09;;;;;;;1.23;0.80;;;;;;;;;;6156042;23;20509;-88
2023/11/27 13:09:40;;;;;;;0.85;0.60;;;;;;;;;;6156215;23;20021;-88
2023/11/27 13:12:18;;;;;;;1.45;0.80;;;;;;;;;;6156215;23;20052;-88
2023/11/27 13:14:46;;;;;;;1.00;0.93;;;;;;;;;;6156580;23;20021;-87
2023/11/27 13:17:20;;;;;;;1.00;0.90;;;;;;;;;;6156551;23;20025;-87
2023/11/27 13:19:49;;;;;;;1.20;1.00;;;;;;;;;;6182401;23;20075;-86
2023/11/27 13:22:17;;;;;;;1.35;1.20;;;;;;;;;;6182338;23;20377;-88
2023/11/27 13:24:50;;;;;;;1.67;1.20;;;;;;;;;;6155796;23;20021;-88
2023/11/27 13:27:20;;;;;;;0.52;0.52;;;;;;;;;;6156294;23;20044;-87
2023/11/27 13:29:52;;;;;;;0.75;0.75;;;;;;;;;;6156599;23;20364;-88
2023/11/27 13:32:21;;;;;;;0.50;0.50;;;;;;;;;;6182167;23;20032;-88
2023/11/27 13:34:55;;;;;;;0.73;0.73;;;;;;;;;;6156046;23;20060;-88
2023/11/27 13:37:25;;;;;;;3.22;0.85;;;;;;;;;;6157377;23;20021;-87
2023/11/27 13:39:57;;;;;;;0.70;0.70;;;;;;;;;;6184112;23;20017;-88
2023/11/27 13:42:30;;;;;;;0.50;0.50;;;;;;;;;;6183782;23;20021;-87
2023/11/27 13:44:58;;;;;;;0.70;0.70;;;;;;;;;;6156768;23;20021;-87
2023/11/27 13:47:26;;;;;;;0.50;0.50;;;;;;;;;;6156600;23;20029;-87
2023/11/27 13:49:58;;;;;;;0.75;0.75;;;;;;;;;;6156916;23;20025;-87
2023/11/27 13:52:32;;;;;;;0.70;0.70;;;;;;;;;;6151262;23;20467;-87
2023/11/27 13:55:00;;;;;;;0.80;0.70;;;;;;;;;;6152140;23;20026;-88
2023/11/27 13:57:30;;;;;;;0.22;0.20;;;;;;;;;;6151113;23;20028;-87
2023/11/27 13:59:59;;;;;;;0.40;0.40;;;;;;;;;;6150951;23;20029;-88
2023/11/27 14:02:27;;;;;;;0.40;0.40;;;;;;;;;;6152640;23;20025;-88
2023/11/27 14:05:05;;;;;;;1.00;0.32;;;;;;;;;;6151152;23;20018;-87
2023/11/27 14:07:39;;;;;;;0.30;0.30;;;;;;;;;;6151379;23;20025;-87
2023/11/27 14:10:21;;;;;;;0.52;0.52;;;;;;;;;;6152434;23;20097;-87
2023/11/27 14:12:59;;;;;;;0.35;0.30;;;;;;;;;;6151042;23;20083;-87
2023/11/27 14:15:37;;;;;;;0.70;0.60;;;;;;;;;;6150933;23;20022;-88
2023/11/27 14:31:17;;;;;;;0.30;0.30;;;;;;;;;;6152239;23;20040;-88
2023/11/27 14:33:50;;;;;;;0.32;0.32;;;;;;;;;;6150432;23;20071;-88
2023/11/27 14:36:18;;;;;;;0.60;0.60;;;;;;;;;;6151570;23;20063;-87
2023/11/27 14:38:48;;;;;;;0.63;0.63;;;;;;;;;;6152022;23;20026;-87
2023/11/27 14:41:17;;;;;;;0.65;0.43;;;;;;;;;;6151024;23;20071;-88
2023/11/27 14:43:44;;;;;;;0.40;0.40;;;;;;;;;;6150952;23;20032;-87
2023/11/27 14:46:14;;;;;;;0.40;0.40;;;;;;;;;;6151104;23;20315;-87
2023/11/27 14:48:43;;;;;;;0.50;0.50;;;;;;;;;;6151256;23;20442;-88
2023/11/27 14:51:10;;;;;;;0.40;0.40;;;;;;;;;;6150319;23;20026;-87
2023/11/27 14:53:48;;;;;;;0.47;0.47;;;;;;;;;;6155664;23;20047;-87
2023/11/27 14:56:16;;;;;;;0.30;0.30;;;;;;;;;;6182013;23;20021;-87
2023/11/27 14:58:44;;;;;;;0.40;0.40;;;;;;;;;;6155586;23;20024;-87
2023/11/27 15:01:14;;;;;;;1.02;0.65;;;;;;;;;;6179026;23;20021;-87
2023/11/27 15:03:43;;;;;;;0.85;0.85;;;;;;;;;;6156175;23;20078;-87
2023/11/27 15:06:13;;;;;;;0.52;0.52;;;;;;;;;;6156181;23;20441;-88